createdAt,value
2022-07-31T00:01:09.111Z,49.00
2022-07-31T00:03:37.506Z,49.05
2022-07-31T00:06:05.930Z,49.04
2022-07-31T00:08:38.517Z,48.95
2022-07-31T00:11:06.794Z,48.80
2022-07-31T00:13:58.029Z,48.69
2022-07-31T00:16:23.430Z,48.83
2022-07-31T00:18:51.831Z,48.96
2022-07-31T00:21:20.154Z,49.07
2022-07-31T00:23:49.921Z,48.94
2022-07-31T00:26:18.212Z,48.89
2022-07-31T00:28:47.810Z,49.05
2022-07-31T00:31:16.087Z,49.15
2022-07-31T00:33:44.429Z,48.89
2022-07-31T00:36:14.148Z,49.02
2022-07-31T00:38:42.456Z,49.09
2022-07-31T00:41:12.233Z,49.20
2022-07-31T00:43:40.649Z,49.15
2022-07-31T00:46:14.322Z,49.04
2022-07-31T00:48:43.426Z,49.08
2022-07-31T00:51:12.419Z,48.91
2022-07-31T00:53:40.694Z,49.07
2022-07-31T00:56:09.098Z,49.08
2022-07-31T00:58:38.752Z,49.06
2022-07-31T01:01:07.226Z,49.31
2022-07-31T01:03:35.743Z,48.97
2022-07-31T01:06:04.123Z,49.15
2022-07-31T01:08:32.872Z,49.19
2022-07-31T01:11:07.044Z,48.97
2022-07-31T01:13:50.241Z,48.95
2022-07-31T01:16:19.555Z,48.87
2022-07-31T01:18:49.314Z,49.17
2022-07-31T01:21:24.671Z,49.12
2022-07-31T01:24:19.805Z,49.13
2022-07-31T01:27:05.574Z,49.44
2022-07-31T01:29:39.954Z,49.50
2022-07-31T01:32:12.077Z,49.63
2022-07-31T01:34:45.240Z,49.49
2022-07-31T01:37:20.791Z,49.56
2022-07-31T01:39:54.041Z,49.67
2022-07-31T01:42:26.956Z,49.83
2022-07-31T01:45:00.831Z,50.16
2022-07-31T01:47:30.711Z,50.47
2022-07-31T01:50:00.421Z,50.38
2022-07-31T01:52:31.695Z,50.32
2022-07-31T01:55:02.006Z,50.23
2022-07-31T01:57:32.753Z,50.49
2022-07-31T02:00:33.636Z,50.14
2022-07-31T02:03:09.260Z,50.27
2022-07-31T02:05:41.866Z,50.27
2022-07-31T02:08:12.689Z,50.38
2022-07-31T02:10:45.716Z,50.32
2022-07-31T02:13:15.287Z,50.31
2022-07-31T02:15:47.150Z,50.36
2022-07-31T02:18:19.714Z,50.40
2022-07-31T02:21:05.434Z,50.26
2022-07-31T02:23:34.660Z,50.33
2022-07-31T02:26:05.003Z,50.37
2022-07-31T02:28:38.262Z,50.41
2022-07-31T02:31:12.761Z,50.47
2022-07-31T02:33:44.532Z,50.72
2022-07-31T02:36:15.046Z,50.63
2022-07-31T02:38:44.509Z,50.80
2022-07-31T02:41:14.358Z,50.72
2022-07-31T02:43:43.818Z,50.90
2022-07-31T02:46:24.777Z,50.98
2022-07-31T02:48:53.928Z,51.04
2022-07-31T02:51:24.680Z,51.12
2022-07-31T02:53:54.680Z,51.25
2022-07-31T02:56:26.487Z,51.33
2022-07-31T02:58:55.778Z,51.41
2022-07-31T03:01:28.772Z,51.30
2022-07-31T03:03:58.028Z,51.37
2022-07-31T03:06:29.311Z,51.36
2022-07-31T03:08:57.700Z,51.33
2022-07-31T03:11:26.887Z,51.47
2022-07-31T03:13:59.063Z,51.43
2022-07-31T03:16:30.623Z,51.58
2022-07-31T03:19:02.371Z,51.73
2022-07-31T03:21:32.104Z,51.88
2022-07-31T03:24:00.690Z,51.79
2022-07-31T03:26:32.133Z,51.78
2022-07-31T03:29:02.251Z,51.88
2022-07-31T03:31:32.093Z,51.92
2022-07-31T03:34:00.416Z,51.95
2022-07-31T03:36:29.333Z,51.99
2022-07-31T03:38:57.820Z,51.97
2022-07-31T03:41:33.964Z,52.04
2022-07-31T03:44:02.869Z,52.05
2022-07-31T03:46:33.832Z,52.11
2022-07-31T03:49:02.496Z,52.04
2022-07-31T03:51:31.006Z,52.03
2022-07-31T03:54:00.018Z,52.04
2022-07-31T03:57:01.135Z,51.93
2022-07-31T03:59:32.426Z,51.96
2022-07-31T04:02:11.358Z,51.83
2022-07-31T04:04:44.610Z,51.81
2022-07-31T04:07:12.973Z,51.98
2022-07-31T04:09:41.602Z,51.91
2022-07-31T04:12:11.723Z,51.77
2022-07-31T04:14:40.128Z,51.90
2022-07-31T04:17:10.399Z,51.86
2022-07-31T04:19:39.523Z,51.79
2022-07-31T04:22:08.752Z,51.72
2022-07-31T04:24:38.003Z,51.89
2022-07-31T04:27:24.982Z,52.05
2022-07-31T04:29:53.680Z,51.83
2022-07-31T04:32:24.101Z,51.85
2022-07-31T04:34:59.555Z,51.75
2022-07-31T04:37:27.951Z,51.76
2022-07-31T04:39:56.504Z,51.59
2022-07-31T04:42:25.502Z,51.73
2022-07-31T04:44:54.796Z,51.85
2022-07-31T04:47:24.576Z,51.70
2022-07-31T04:49:53.608Z,51.96
2022-07-31T04:52:22.617Z,51.94
2022-07-31T04:54:52.085Z,51.75
2022-07-31T04:57:22.180Z,51.79
2022-07-31T04:59:59.093Z,52.04
2022-07-31T05:02:31.989Z,52.05
2022-07-31T05:05:00.386Z,52.10
2022-07-31T05:07:34.747Z,52.07
2022-07-31T05:10:08.339Z,52.07
2022-07-31T05:12:37.609Z,52.33
2022-07-31T05:15:07.775Z,52.59
2022-07-31T05:17:37.569Z,52.24
2022-07-31T05:20:35.199Z,52.26
2022-07-31T05:23:22.193Z,52.18
2022-07-31T05:26:08.109Z,52.27
2022-07-31T05:28:37.189Z,52.12
2022-07-31T05:31:05.949Z,52.12
2022-07-31T05:33:36.412Z,52.00
2022-07-31T05:36:05.752Z,51.98
2022-07-31T05:38:34.393Z,51.55
2022-07-31T05:41:21.016Z,51.26
2022-07-31T05:44:04.548Z,51.34
2022-07-31T05:46:42.556Z,51.11
2022-07-31T05:49:12.844Z,50.98
2022-07-31T05:51:44.510Z,50.93
2022-07-31T05:54:13.422Z,50.49
2022-07-31T05:57:00.269Z,50.41
2022-07-31T05:59:36.410Z,50.21
2022-07-31T06:02:05.447Z,50.20
2022-07-31T06:04:48.406Z,50.57
2022-07-31T06:07:16.948Z,50.08
2022-07-31T06:09:46.180Z,50.06
2022-07-31T06:12:17.599Z,49.82
2022-07-31T06:14:46.055Z,50.13
2022-07-31T06:17:20.964Z,49.84
2022-07-31T06:19:52.889Z,49.67
2022-07-31T06:22:23.522Z,49.83
2022-07-31T06:24:53.257Z,49.60
2022-07-31T06:27:33.537Z,49.22
2022-07-31T06:30:03.137Z,49.40
2022-07-31T06:32:31.964Z,49.18
2022-07-31T06:35:02.595Z,48.89
2022-07-31T06:37:34.304Z,49.40
2022-07-31T06:40:02.817Z,48.68
2022-07-31T06:43:09.892Z,47.71
2022-07-31T06:45:58.472Z,47.48
2022-07-31T06:49:06.810Z,47.04
2022-07-31T06:51:38.532Z,48.15
2022-07-31T06:54:09.027Z,46.82
2022-07-31T06:56:39.388Z,46.97
2022-07-31T06:59:08.649Z,46.93
2022-07-31T07:01:37.102Z,45.73
2022-07-31T07:04:06.425Z,46.28
2022-07-31T07:06:35.269Z,45.53
2022-07-31T07:09:05.309Z,45.63
2022-07-31T07:11:33.970Z,45.53
2022-07-31T07:14:02.561Z,45.43
2022-07-31T07:16:31.321Z,44.57
2022-07-31T07:18:59.887Z,43.52
2022-07-31T07:21:28.287Z,44.10
2022-07-31T07:23:56.654Z,43.25
2022-07-31T07:26:39.447Z,43.46
2022-07-31T07:29:10.728Z,43.55
2022-07-31T07:31:39.287Z,42.71
2022-07-31T07:34:09.401Z,43.15
2022-07-31T07:36:37.939Z,43.66
2022-07-31T07:39:26.527Z,42.83
2022-07-31T07:41:56.565Z,43.06
2022-07-31T07:44:24.936Z,42.92
2022-07-31T07:46:53.653Z,42.53
2022-07-31T07:49:22.868Z,42.69
2022-07-31T07:52:11.290Z,43.27
2022-07-31T07:54:39.818Z,42.68
2022-07-31T07:57:25.190Z,42.36
2022-07-31T08:00:32.215Z,42.03
2022-07-31T08:03:49.098Z,41.77
2022-07-31T08:05:52.901Z,41.46
2022-07-31T08:08:21.487Z,41.65
2022-07-31T08:10:49.931Z,42.20
2022-07-31T08:13:31.252Z,41.87
2022-07-31T08:16:18.795Z,41.07
2022-07-31T08:18:51.984Z,41.18
2022-07-31T08:21:20.530Z,40.88
2022-07-31T08:23:48.991Z,40.57
2022-07-31T08:26:27.475Z,39.99
2022-07-31T08:28:58.500Z,41.43
2022-07-31T08:31:33.476Z,40.75
2022-07-31T08:34:42.013Z,39.97
2022-07-31T08:37:59.208Z,39.41
2022-07-31T08:40:00.705Z,39.39
2022-07-31T08:42:29.095Z,38.65
2022-07-31T08:44:59.449Z,38.79
2022-07-31T08:47:34.463Z,39.63
2022-07-31T08:50:15.303Z,38.74
2022-07-31T08:52:45.929Z,38.28
2022-07-31T08:55:55.106Z,38.67
2022-07-31T08:58:13.428Z,38.88
2022-07-31T09:00:44.285Z,38.59
2022-07-31T09:03:13.062Z,38.28
2022-07-31T09:05:51.459Z,37.74
2022-07-31T09:08:20.167Z,38.14
2022-07-31T09:11:03.441Z,38.42
2022-07-31T09:13:38.313Z,38.45
2022-07-31T09:16:30.866Z,37.61
2022-07-31T09:19:01.971Z,38.27
2022-07-31T09:21:40.315Z,38.07
2022-07-31T09:24:10.335Z,37.87
2022-07-31T09:26:41.010Z,38.74
2022-07-31T09:29:12.648Z,37.43
2022-07-31T09:31:43.361Z,37.69
2022-07-31T09:34:35.011Z,37.24
2022-07-31T09:37:12.519Z,36.08
2022-07-31T09:39:59.401Z,35.97
2022-07-31T09:42:55.033Z,35.47
2022-07-31T09:45:29.130Z,35.59
2022-07-31T09:48:13.779Z,35.49
2022-07-31T09:50:54.539Z,35.47
2022-07-31T09:53:24.207Z,35.60
2022-07-31T09:55:58.901Z,35.80
2022-07-31T09:58:30.632Z,36.58
2022-07-31T10:00:59.363Z,36.79
2022-07-31T10:03:29.383Z,36.95
2022-07-31T10:05:59.091Z,37.08
2022-07-31T10:08:30.388Z,37.37
2022-07-31T10:11:35.710Z,38.18
2022-07-31T10:14:23.248Z,39.54
2022-07-31T10:16:55.767Z,40.35
2022-07-31T10:20:04.344Z,41.12
2022-07-31T10:22:52.861Z,42.36
2022-07-31T10:25:27.447Z,42.35
2022-07-31T10:27:57.381Z,43.58
2022-07-31T10:30:28.433Z,43.75
2022-07-31T10:33:00.241Z,44.58
2022-07-31T10:35:30.501Z,45.56
2022-07-31T10:38:05.123Z,45.34
2022-07-31T10:41:12.334Z,46.12
2022-07-31T10:43:46.940Z,46.19
2022-07-31T10:46:44.737Z,45.95
2022-07-31T10:49:41.600Z,46.09
2022-07-31T10:52:39.389Z,46.30
2022-07-31T10:55:30.535Z,46.34
2022-07-31T10:58:26.951Z,46.81
2022-07-31T11:01:17.578Z,47.05
2022-07-31T11:04:06.168Z,47.44
2022-07-31T11:06:49.154Z,47.67
2022-07-31T11:09:45.426Z,48.20
2022-07-31T11:13:00.790Z,48.23
2022-07-31T11:16:04.898Z,49.06
2022-07-31T11:19:01.012Z,49.63
2022-07-31T11:21:39.284Z,50.20
2022-07-31T11:24:15.921Z,50.43
2022-07-31T11:26:50.547Z,51.15
2022-07-31T11:29:59.965Z,51.06
2022-07-31T11:32:25.491Z,51.53
2022-07-31T11:34:57.782Z,51.18
2022-07-31T11:37:39.480Z,50.01
2022-07-31T11:40:15.283Z,50.82
2022-07-31T11:42:46.371Z,51.42
2022-07-31T11:45:17.307Z,51.92
2022-07-31T11:48:12.687Z,52.00
2022-07-31T11:50:41.474Z,51.69
2022-07-31T11:53:09.801Z,51.24
2022-07-31T11:55:46.643Z,50.81
2022-07-31T11:58:17.394Z,51.06
2022-07-31T12:00:53.309Z,51.33
2022-07-31T12:03:23.399Z,52.24
2022-07-31T12:05:57.892Z,52.02
2022-07-31T12:08:28.572Z,51.85
2022-07-31T12:10:58.294Z,52.20
2022-07-31T12:13:38.528Z,52.20
2022-07-31T12:16:09.548Z,52.91
2022-07-31T12:18:48.377Z,53.11
2022-07-31T12:21:21.234Z,53.23
2022-07-31T12:23:50.720Z,53.20
2022-07-31T12:26:27.852Z,52.96
2022-07-31T12:29:05.735Z,53.05
2022-07-31T12:31:46.811Z,53.23
2022-07-31T12:34:15.038Z,54.04
2022-07-31T12:36:43.141Z,54.25
2022-07-31T12:39:13.762Z,54.64
2022-07-31T12:41:43.893Z,54.74
2022-07-31T12:44:44.442Z,54.74
2022-07-31T12:47:22.780Z,54.59
2022-07-31T12:49:59.944Z,55.20
2022-07-31T12:52:31.461Z,55.68
2022-07-31T12:55:00.250Z,55.68
2022-07-31T12:57:29.929Z,55.99
2022-07-31T12:59:59.713Z,56.53
2022-07-31T13:02:29.237Z,56.85
2022-07-31T13:04:58.947Z,57.30
2022-07-31T13:07:29.075Z,57.29
2022-07-31T13:10:20.494Z,57.36
2022-07-31T13:12:45.213Z,57.10
2022-07-31T13:15:13.633Z,57.21
2022-07-31T13:17:43.940Z,57.32
2022-07-31T13:20:19.217Z,57.48
2022-07-31T13:22:47.387Z,57.69
2022-07-31T13:25:17.980Z,58.05
2022-07-31T13:27:49.373Z,58.41
2022-07-31T13:35:26.860Z,58.51
2022-07-31T13:46:56.552Z,59.62
2022-07-31T13:49:35.992Z,60.35
2022-07-31T13:52:12.853Z,60.80
2022-07-31T13:54:48.646Z,60.83
2022-07-31T13:57:16.711Z,60.62
2022-07-31T13:59:45.123Z,60.96
2022-07-31T14:02:15.752Z,61.53
2022-07-31T14:04:44.405Z,61.89
2022-07-31T14:07:13.103Z,61.81
2022-07-31T14:09:47.019Z,62.08
2022-07-31T14:12:25.446Z,62.21
2022-07-31T14:14:53.538Z,62.18
2022-07-31T14:17:25.388Z,62.27
2022-07-31T14:19:53.507Z,62.22
2022-07-31T14:22:21.687Z,62.52
2022-07-31T14:24:51.525Z,62.48
2022-07-31T14:27:21.040Z,62.57
2022-07-31T14:30:02.319Z,62.34
2022-07-31T14:32:32.508Z,62.63
2022-07-31T14:35:06.001Z,62.74
2022-07-31T14:37:38.547Z,62.82
2022-07-31T14:40:07.740Z,62.98
2022-07-31T14:42:36.335Z,63.19
2022-07-31T14:45:06.188Z,63.07
2022-07-31T14:47:35.993Z,63.20
2022-07-31T14:50:07.431Z,63.30
2022-07-31T14:52:38.179Z,63.33
2022-07-31T14:55:07.284Z,63.52
2022-07-31T14:57:35.535Z,63.45
2022-07-31T15:00:03.763Z,63.43
2022-07-31T15:02:31.826Z,63.53
2022-07-31T15:06:49.262Z,63.63
2022-07-31T15:07:49.715Z,63.76
2022-07-31T15:10:18.107Z,63.75
2022-07-31T15:12:46.138Z,63.70
2022-07-31T15:15:14.214Z,63.60
2022-07-31T15:17:42.398Z,63.72
2022-07-31T15:20:12.772Z,63.76
2022-07-31T15:22:40.891Z,63.88
2022-07-31T15:25:10.191Z,63.85
2022-07-31T15:27:38.229Z,63.88
2022-07-31T15:30:08.158Z,64.08
2022-07-31T15:32:38.229Z,64.12
2022-07-31T15:35:08.454Z,64.28
2022-07-31T15:37:39.489Z,64.34
2022-07-31T15:40:09.926Z,64.40
2022-07-31T15:42:40.571Z,64.47
2022-07-31T15:45:13.181Z,64.61
2022-07-31T15:47:42.393Z,64.82
2022-07-31T15:50:12.443Z,64.92
2022-07-31T15:52:42.678Z,64.56
2022-07-31T15:55:11.595Z,64.57
2022-07-31T15:57:40.219Z,64.37
2022-07-31T16:00:10.587Z,63.95
2022-07-31T16:02:42.586Z,63.50
2022-07-31T16:05:21.623Z,63.35
2022-07-31T16:08:32.747Z,63.31
2022-07-31T16:10:54.870Z,63.11
2022-07-31T16:13:24.953Z,63.34
2022-07-31T16:15:56.946Z,63.50
2022-07-31T16:18:29.390Z,63.82
2022-07-31T16:20:57.743Z,63.82
2022-07-31T16:23:28.098Z,63.40
2022-07-31T16:25:56.666Z,63.17
2022-07-31T16:28:25.192Z,62.89
2022-07-31T16:30:54.938Z,62.56
2022-07-31T16:33:22.938Z,62.42
2022-07-31T16:35:51.138Z,62.33
2022-07-31T16:38:19.198Z,62.43
2022-07-31T16:40:53.103Z,62.31
2022-07-31T16:43:50.289Z,62.50
2022-07-31T16:46:10.563Z,62.24
2022-07-31T16:48:38.753Z,62.15
2022-07-31T16:51:07.351Z,62.14
2022-07-31T16:54:13.590Z,62.01
2022-07-31T16:56:25.810Z,62.05
2022-07-31T16:58:55.554Z,62.34
2022-07-31T17:01:53.928Z,62.20
2022-07-31T17:04:13.786Z,61.70
2022-07-31T17:06:41.992Z,61.73
2022-07-31T17:09:17.480Z,61.57
2022-07-31T17:11:49.929Z,61.35
2022-07-31T17:14:19.101Z,61.34
2022-07-31T17:16:49.429Z,61.35
2022-07-31T17:19:42.038Z,61.40
2022-07-31T17:22:07.583Z,61.44
2022-07-31T17:24:37.252Z,61.10
2022-07-31T17:27:08.922Z,60.87
2022-07-31T17:29:52.091Z,60.93
2022-07-31T17:32:20.179Z,60.90
2022-07-31T17:34:49.580Z,61.07
2022-07-31T17:37:18.206Z,61.49
2022-07-31T17:39:46.740Z,61.63
2022-07-31T17:42:18.047Z,61.91
2022-07-31T17:44:54.633Z,62.18
2022-07-31T17:47:26.004Z,62.02
2022-07-31T17:49:54.626Z,62.12
2022-07-31T17:52:22.799Z,62.14
2022-07-31T17:54:52.288Z,62.12
2022-07-31T17:57:22.876Z,62.13
2022-07-31T17:59:51.835Z,61.96
2022-07-31T18:02:19.924Z,62.11
2022-07-31T18:08:06.045Z,62.27
2022-07-31T18:10:53.406Z,62.19
2022-07-31T18:13:27.750Z,62.14
2022-07-31T18:15:56.091Z,62.10
2022-07-31T18:18:24.772Z,62.36
2022-07-31T18:20:53.192Z,62.49
2022-07-31T18:23:23.169Z,62.44
2022-07-31T18:25:52.632Z,62.43
2022-07-31T18:28:20.947Z,62.60
2022-07-31T18:30:51.002Z,62.63
2022-07-31T18:33:19.486Z,62.59
2022-07-31T18:35:47.978Z,62.55
2022-07-31T18:38:17.148Z,62.58
2022-07-31T18:40:45.846Z,62.67
2022-07-31T18:43:14.554Z,62.84
2022-07-31T18:45:42.855Z,62.90
2022-07-31T18:48:13.171Z,62.99
2022-07-31T18:50:59.046Z,63.11
2022-07-31T18:53:30.021Z,63.12
2022-07-31T18:55:58.334Z,63.17
2022-07-31T18:58:26.728Z,63.36
2022-07-31T19:00:55.597Z,63.45
2022-07-31T19:03:27.523Z,63.50
2022-07-31T19:05:55.800Z,63.42
2022-07-31T19:08:24.212Z,63.47
2022-07-31T19:10:53.654Z,63.53
2022-07-31T19:13:22.793Z,63.60
2022-07-31T19:15:53.235Z,63.63
2022-07-31T19:18:26.371Z,63.66
2022-07-31T19:21:21.212Z,63.68
2022-07-31T19:23:48.787Z,63.88
2022-07-31T19:26:17.615Z,64.05
2022-07-31T19:28:47.273Z,64.11
2022-07-31T19:31:16.169Z,64.07
2022-07-31T19:33:45.084Z,64.05
2022-07-31T19:36:16.224Z,64.06
2022-07-31T19:38:45.274Z,64.11
2022-07-31T19:41:17.453Z,64.27
2022-07-31T19:43:46.071Z,64.34
2022-07-31T19:46:14.547Z,64.32
2022-07-31T19:48:44.342Z,64.27
2022-07-31T19:51:13.561Z,64.17
2022-07-31T19:53:44.576Z,64.08
2022-07-31T19:56:20.513Z,64.16
2022-07-31T19:58:50.526Z,64.16
2022-07-31T20:01:21.792Z,64.20
2022-07-31T20:03:50.993Z,64.27
2022-07-31T20:06:20.193Z,64.28
2022-07-31T20:08:50.341Z,64.34
2022-07-31T20:11:19.019Z,64.40
2022-07-31T20:13:47.356Z,64.45
2022-07-31T20:16:16.256Z,64.51
2022-07-31T20:18:45.693Z,64.57
2022-07-31T20:21:14.857Z,64.57
2022-07-31T20:23:44.394Z,64.59
2022-07-31T20:26:19.932Z,64.59
2022-07-31T20:28:48.351Z,64.58
2022-07-31T20:31:21.561Z,64.63
2022-07-31T20:33:57.384Z,64.64
2022-07-31T20:36:27.009Z,64.53
2022-07-31T20:38:56.637Z,64.58
2022-07-31T20:41:27.470Z,64.57
2022-07-31T20:43:56.247Z,64.62
2022-07-31T20:46:24.528Z,64.42
2022-07-31T20:48:52.933Z,64.44
2022-07-31T20:51:23.316Z,64.49
2022-07-31T20:53:52.199Z,64.59
2022-07-31T20:56:21.288Z,64.65
2022-07-31T20:58:52.110Z,64.56
2022-07-31T21:01:21.217Z,64.50
2022-07-31T21:03:50.535Z,64.50
2022-07-31T21:06:19.441Z,64.53
2022-07-31T21:08:47.960Z,64.45
2022-07-31T21:11:17.241Z,64.39
2022-07-31T21:13:45.917Z,64.39
2022-07-31T21:16:15.957Z,64.34
2022-07-31T21:18:44.677Z,64.15
2022-07-31T21:21:13.455Z,64.22
2022-07-31T21:23:41.742Z,64.20
2022-07-31T21:26:11.518Z,64.23
2022-07-31T21:28:40.550Z,64.21
2022-07-31T21:31:09.619Z,64.13
2022-07-31T21:33:40.188Z,64.01
2022-07-31T21:36:09.729Z,63.91
2022-07-31T21:38:40.329Z,64.01
2022-07-31T21:41:09.577Z,63.89
2022-07-31T21:43:58.136Z,63.92
2022-07-31T21:46:28.221Z,63.86
2022-07-31T21:48:58.719Z,63.85
2022-07-31T21:51:27.644Z,63.82
2022-07-31T21:53:55.946Z,63.85
2022-07-31T21:56:24.670Z,63.82
2022-07-31T21:58:53.651Z,63.84
2022-07-31T22:01:22.191Z,63.82
2022-07-31T22:03:50.931Z,63.83
2022-07-31T22:06:38.130Z,63.80
2022-07-31T22:09:06.459Z,63.86
2022-07-31T22:11:35.864Z,63.89
2022-07-31T22:14:04.446Z,63.92
2022-07-31T22:16:32.816Z,63.93
2022-07-31T22:19:01.589Z,63.94
2022-07-31T22:21:32.206Z,63.97
2022-07-31T22:24:00.977Z,63.98
2022-07-31T22:26:29.947Z,64.03
2022-07-31T22:28:59.608Z,64.06
2022-07-31T22:31:28.481Z,64.05
2022-07-31T22:33:57.661Z,64.02
2022-07-31T22:36:27.025Z,64.13
2022-07-31T22:38:57.567Z,64.18
2022-07-31T22:41:26.187Z,64.30
2022-07-31T22:44:12.958Z,64.27
2022-07-31T22:46:43.403Z,64.28
2022-07-31T22:49:12.699Z,64.22
2022-07-31T22:51:46.131Z,64.15
2022-07-31T22:54:16.368Z,64.19
2022-07-31T22:56:45.816Z,64.22
2022-07-31T22:59:14.194Z,64.26
2022-07-31T23:01:42.574Z,64.32
2022-07-31T23:04:11.309Z,64.31
2022-07-31T23:06:39.987Z,64.24
2022-07-31T23:09:08.290Z,64.31
2022-07-31T23:11:38.923Z,64.22
2022-07-31T23:14:07.412Z,64.43
2022-07-31T23:16:35.732Z,64.45
2022-07-31T23:19:04.301Z,64.36
2022-07-31T23:21:33.746Z,64.43
2022-07-31T23:24:02.180Z,64.56
2022-07-31T23:26:30.519Z,64.57
2022-07-31T23:29:00.273Z,64.66
2022-07-31T23:31:28.567Z,64.73
2022-07-31T23:33:57.308Z,64.80
2022-07-31T23:36:25.768Z,64.93
2022-07-31T23:38:54.315Z,64.99
2022-07-31T23:41:36.494Z,64.98
2022-07-31T23:44:10.664Z,64.94
2022-07-31T23:46:40.357Z,65.06
2022-07-31T23:49:09.719Z,65.03
2022-07-31T23:51:38.606Z,65.03
2022-07-31T23:54:08.044Z,64.80
2022-07-31T23:56:36.560Z,64.71
2022-07-31T23:59:06.259Z,64.81
